createdAt,value
2022-12-22T00:00:46.999Z,3.50
2022-12-22T00:03:32.874Z,3.50
2022-12-22T00:06:18.718Z,3.50
2022-12-22T00:09:05.942Z,3.50
2022-12-22T00:11:51.571Z,3.60
2022-12-22T00:14:37.169Z,3.60
2022-12-22T00:17:26.988Z,3.60
2022-12-22T00:20:18.139Z,3.60
2022-12-22T00:23:04.256Z,3.60
2022-12-22T00:25:49.854Z,3.60
2022-12-22T00:28:35.283Z,3.60
2022-12-22T00:31:21.463Z,3.60
2022-12-22T00:34:07.070Z,3.70
2022-12-22T00:36:52.646Z,3.70
2022-12-22T00:39:38.091Z,3.70
2022-12-22T00:42:23.641Z,3.70
2022-12-22T00:45:09.023Z,3.70
2022-12-22T00:47:54.324Z,3.70
2022-12-22T00:50:43.404Z,3.80
2022-12-22T00:53:28.729Z,3.80
2022-12-22T00:56:14.099Z,3.70
2022-12-22T00:58:59.435Z,3.70
2022-12-22T01:01:44.696Z,3.70
2022-12-22T01:04:30.283Z,3.60
2022-12-22T01:07:16.632Z,3.60
2022-12-22T01:10:07.363Z,3.60
2022-12-22T01:12:56.108Z,3.60
2022-12-22T01:15:41.966Z,3.60
2022-12-22T01:18:27.560Z,3.60
2022-12-22T01:21:13.337Z,3.60
2022-12-22T01:23:59.395Z,3.60
2022-12-22T01:26:45.221Z,3.60
2022-12-22T01:29:30.862Z,3.60
2022-12-22T01:32:16.308Z,3.60
2022-12-22T01:35:01.792Z,3.70
2022-12-22T01:37:47.144Z,3.70
2022-12-22T01:40:38.421Z,3.70
2022-12-22T01:43:44.738Z,3.70
2022-12-22T01:46:51.878Z,3.70
2022-12-22T01:49:43.153Z,3.70
2022-12-22T01:52:30.845Z,3.70
2022-12-22T01:55:21.323Z,3.70
2022-12-22T01:58:06.584Z,3.70
2022-12-22T02:00:52.030Z,3.70
2022-12-22T02:03:39.972Z,3.70
2022-12-22T02:06:59.803Z,3.70
2022-12-22T02:10:21.976Z,3.70
2022-12-22T02:13:29.998Z,3.60
2022-12-22T02:16:35.376Z,3.70
2022-12-22T02:19:53.540Z,3.70
2022-12-22T02:23:12.472Z,3.70
2022-12-22T02:26:10.026Z,3.70
2022-12-22T02:28:55.921Z,3.70
2022-12-22T02:31:42.059Z,3.70
2022-12-22T02:34:34.027Z,3.70
2022-12-22T02:37:29.286Z,3.70
2022-12-22T02:40:41.923Z,3.70
2022-12-22T02:43:48.888Z,3.70
2022-12-22T02:46:49.521Z,3.80
2022-12-22T02:49:38.156Z,3.70
2022-12-22T02:52:36.469Z,3.80
2022-12-22T02:55:23.048Z,3.80
2022-12-22T02:58:11.948Z,3.80
2022-12-22T03:00:58.509Z,3.80
2022-12-22T03:03:44.045Z,3.80
2022-12-22T03:06:29.903Z,3.80
2022-12-22T03:09:15.326Z,3.90
2022-12-22T03:12:00.526Z,3.90
2022-12-22T03:14:45.893Z,3.90
2022-12-22T03:17:31.438Z,3.90
2022-12-22T03:20:16.809Z,3.90
2022-12-22T03:23:02.249Z,3.90
2022-12-22T03:25:47.571Z,3.90
2022-12-22T03:28:14.406Z,4.00
2022-12-22T03:30:41.233Z,4.00
2022-12-22T03:33:08.120Z,4.00
2022-12-22T03:35:34.961Z,4.00
2022-12-22T03:38:03.581Z,4.00
2022-12-22T03:40:31.513Z,4.00
2022-12-22T03:43:17.103Z,4.00
2022-12-22T03:46:02.415Z,4.10
2022-12-22T03:48:29.260Z,4.10
2022-12-22T03:50:56.057Z,4.10
2022-12-22T03:53:22.918Z,4.10
2022-12-22T03:55:49.695Z,4.10
2022-12-22T03:58:16.587Z,4.10
2022-12-22T04:00:43.620Z,4.20
2022-12-22T04:03:10.629Z,4.20
2022-12-22T04:05:37.569Z,4.20
2022-12-22T04:08:04.596Z,4.20
2022-12-22T04:10:50.289Z,4.20
2022-12-22T04:13:17.149Z,4.20
2022-12-22T04:15:44.010Z,4.30
2022-12-22T04:18:10.843Z,4.30
2022-12-22T04:20:37.706Z,4.30
2022-12-22T04:23:04.728Z,4.30
2022-12-22T04:25:31.513Z,4.30
2022-12-22T04:27:58.843Z,4.30
2022-12-22T04:30:25.633Z,4.30
2022-12-22T04:32:52.398Z,4.40
2022-12-22T04:35:19.354Z,4.30
2022-12-22T04:37:46.170Z,4.40
2022-12-22T04:40:13.118Z,4.40
2022-12-22T04:42:39.929Z,4.40
2022-12-22T04:45:07.384Z,4.40
2022-12-22T04:47:34.208Z,4.40
2022-12-22T04:50:01.021Z,4.40
2022-12-22T04:52:27.932Z,4.40
2022-12-22T04:54:54.799Z,4.40
2022-12-22T04:57:21.604Z,4.40
2022-12-22T04:59:48.642Z,4.40
2022-12-22T05:02:15.595Z,4.40
2022-12-22T05:04:42.527Z,4.40
2022-12-22T05:07:09.690Z,4.40
2022-12-22T05:09:36.625Z,4.40
2022-12-22T05:12:23.559Z,4.40
2022-12-22T05:14:50.472Z,4.40
2022-12-22T05:17:17.432Z,4.40
2022-12-22T05:19:44.322Z,4.40
2022-12-22T05:22:11.253Z,4.40
2022-12-22T05:24:38.118Z,4.40
2022-12-22T05:27:05.031Z,4.50
2022-12-22T05:29:31.917Z,4.50
2022-12-22T05:31:58.727Z,4.50
2022-12-22T05:34:25.662Z,4.60
2022-12-22T05:36:52.445Z,4.60
2022-12-22T05:39:19.399Z,4.60
2022-12-22T05:41:46.628Z,4.60
2022-12-22T05:44:13.476Z,4.60
2022-12-22T05:46:40.360Z,4.70
2022-12-22T05:49:07.309Z,4.70
2022-12-22T05:51:34.088Z,4.70
2022-12-22T05:54:00.968Z,4.70
2022-12-22T05:56:27.864Z,4.70
2022-12-22T05:58:54.760Z,4.70
2022-12-22T06:01:21.556Z,4.70
2022-12-22T06:03:48.506Z,4.70
2022-12-22T06:06:15.515Z,4.70
2022-12-22T06:08:42.350Z,4.80
2022-12-22T06:11:09.177Z,4.80
2022-12-22T06:13:36.232Z,4.80
2022-12-22T06:16:03.401Z,4.80
2022-12-22T06:18:30.326Z,4.90
2022-12-22T06:20:57.227Z,4.90
2022-12-22T06:23:24.055Z,4.90
2022-12-22T06:25:59.474Z,4.90
2022-12-22T06:28:27.422Z,4.90
2022-12-22T06:30:55.228Z,5.00
2022-12-22T06:33:22.148Z,4.90
2022-12-22T06:35:53.915Z,5.00
2022-12-22T06:38:25.679Z,4.90
2022-12-22T06:40:52.453Z,4.90
2022-12-22T06:43:19.288Z,5.00
2022-12-22T06:45:46.206Z,5.00
2022-12-22T06:48:13.571Z,5.00
2022-12-22T06:50:41.080Z,4.90
2022-12-22T06:53:08.964Z,4.90
2022-12-22T06:55:36.674Z,5.00
2022-12-22T06:58:04.217Z,5.00
2022-12-22T07:00:31.562Z,4.90
2022-12-22T07:02:58.515Z,4.90
2022-12-22T07:05:25.892Z,4.90
2022-12-22T07:07:53.401Z,4.90
2022-12-22T07:10:40.361Z,4.90
2022-12-22T07:13:19.356Z,4.90
2022-12-22T07:15:52.074Z,5.00
2022-12-22T07:18:24.782Z,4.90
2022-12-22T07:20:52.046Z,5.00
2022-12-22T07:23:18.959Z,5.00
2022-12-22T07:25:45.900Z,5.00
2022-12-22T07:28:16.677Z,5.00
2022-12-22T07:30:47.484Z,4.90
2022-12-22T07:33:14.335Z,4.80
2022-12-22T07:35:41.151Z,4.80
2022-12-22T07:38:08.133Z,4.70
2022-12-22T07:40:41.102Z,4.70
2022-12-22T07:43:08.477Z,4.70
2022-12-22T07:45:35.376Z,4.60
2022-12-22T07:48:23.341Z,4.60
2022-12-22T07:50:50.178Z,4.60
2022-12-22T07:53:17.015Z,4.60
2022-12-22T07:55:43.841Z,4.60
2022-12-22T07:58:10.715Z,4.60
2022-12-22T08:00:37.502Z,4.60
2022-12-22T08:03:04.435Z,4.60
2022-12-22T08:05:31.430Z,4.60
2022-12-22T08:07:58.233Z,4.60
2022-12-22T08:10:25.186Z,4.60
2022-12-22T08:12:52.261Z,4.50
2022-12-22T08:15:19.205Z,4.50
2022-12-22T08:17:46.050Z,4.50
2022-12-22T08:20:12.996Z,4.50
2022-12-22T08:22:39.852Z,4.50
2022-12-22T08:25:06.959Z,4.40
2022-12-22T08:27:40.510Z,4.40
2022-12-22T08:30:08.870Z,4.40
2022-12-22T08:32:38.287Z,4.40
2022-12-22T08:35:07.011Z,4.40
2022-12-22T08:37:41.418Z,4.40
2022-12-22T08:40:18.075Z,4.40
2022-12-22T08:42:45.506Z,4.40
2022-12-22T08:45:12.928Z,4.40
2022-12-22T08:47:39.782Z,4.50
2022-12-22T08:50:07.343Z,4.50
2022-12-22T08:52:34.401Z,4.50
2022-12-22T08:55:01.409Z,4.60
2022-12-22T08:57:28.500Z,4.70
2022-12-22T08:59:55.349Z,4.70
2022-12-22T09:02:22.405Z,4.80
2022-12-22T09:04:49.424Z,4.80
2022-12-22T09:07:16.500Z,4.90
2022-12-22T09:09:43.377Z,4.90
2022-12-22T09:12:10.443Z,4.90
2022-12-22T09:14:37.369Z,5.00
2022-12-22T09:17:04.587Z,5.00
2022-12-22T09:19:31.418Z,5.00
2022-12-22T09:21:58.265Z,5.00
2022-12-22T09:24:25.186Z,5.10
2022-12-22T09:26:52.108Z,5.10
2022-12-22T09:29:18.947Z,5.10
2022-12-22T09:31:45.920Z,5.10
2022-12-22T09:34:17.672Z,5.10
2022-12-22T09:36:45.779Z,5.10
2022-12-22T09:39:12.720Z,5.20
2022-12-22T09:41:53.549Z,5.20
2022-12-22T09:44:33.816Z,5.20
2022-12-22T09:47:12.834Z,5.20
2022-12-22T09:49:39.725Z,5.10
2022-12-22T09:52:07.172Z,5.10
2022-12-22T09:54:34.209Z,5.10
2022-12-22T09:57:01.666Z,5.10
2022-12-22T09:59:28.919Z,5.10
2022-12-22T10:02:18.305Z,5.20
2022-12-22T10:05:17.484Z,5.10
2022-12-22T10:07:44.707Z,5.10
2022-12-22T10:10:14.566Z,5.20
2022-12-22T10:12:41.413Z,5.10
2022-12-22T10:15:16.780Z,5.10
2022-12-22T10:17:54.352Z,5.10
2022-12-22T10:20:26.102Z,5.10
2022-12-22T10:23:05.071Z,5.10
2022-12-22T10:26:17.144Z,5.10
2022-12-22T10:28:37.538Z,5.10
2022-12-22T10:31:32.066Z,5.00
2022-12-22T10:34:17.683Z,5.00
2022-12-22T10:36:53.391Z,5.00
2022-12-22T10:39:33.288Z,4.90
2022-12-22T10:42:14.612Z,4.90
2022-12-22T10:44:46.864Z,4.90
2022-12-22T10:47:20.600Z,4.90
2022-12-22T10:52:29.655Z,4.90
2022-12-22T10:55:18.473Z,5.00
2022-12-22T10:57:45.451Z,5.00
2022-12-22T11:00:26.171Z,5.00
2022-12-22T11:02:55.972Z,5.10
2022-12-22T11:05:23.072Z,5.10
2022-12-22T11:07:50.551Z,5.10
2022-12-22T11:10:30.926Z,5.20
2022-12-22T11:13:17.444Z,5.10
2022-12-22T11:16:03.968Z,5.10
2022-12-22T11:18:42.767Z,5.10
2022-12-22T11:21:27.153Z,5.10
2022-12-22T11:24:30.534Z,5.10
2022-12-22T11:27:31.368Z,5.10
2022-12-22T11:30:12.546Z,5.00
2022-12-22T11:32:58.210Z,5.00
2022-12-22T11:35:43.684Z,5.00
2022-12-22T11:38:13.288Z,4.90
2022-12-22T11:40:46.906Z,4.80
2022-12-22T11:44:03.388Z,4.70
2022-12-22T11:47:08.449Z,4.70
2022-12-22T11:49:44.726Z,4.60
2022-12-22T11:52:19.317Z,4.60
2022-12-22T11:55:04.125Z,4.60
2022-12-22T11:58:15.381Z,4.60
2022-12-22T12:01:26.409Z,4.60
2022-12-22T12:04:20.710Z,4.60
2022-12-22T12:07:11.446Z,4.50
2022-12-22T12:09:54.038Z,4.50
2022-12-22T12:12:42.403Z,4.60
2022-12-22T12:15:27.124Z,4.50
2022-12-22T12:18:11.922Z,4.60
2022-12-22T12:20:53.537Z,4.50
2022-12-22T12:23:51.467Z,4.50
2022-12-22T12:26:24.049Z,4.50
2022-12-22T12:29:05.891Z,4.50
2022-12-22T12:31:41.535Z,4.50
2022-12-22T12:34:14.467Z,4.50
2022-12-22T12:37:06.201Z,4.50
2022-12-22T12:39:57.172Z,4.50
2022-12-22T12:42:34.465Z,4.50
2022-12-22T12:45:02.544Z,4.50
2022-12-22T12:47:36.164Z,4.50
2022-12-22T12:50:14.735Z,4.50
2022-12-22T12:52:43.569Z,4.50
2022-12-22T12:55:34.963Z,4.50
2022-12-22T12:58:04.244Z,4.50
2022-12-22T13:00:34.681Z,4.50
2022-12-22T13:03:25.183Z,4.50
2022-12-22T13:06:02.311Z,4.50
2022-12-22T13:08:32.074Z,4.50
2022-12-22T13:10:58.831Z,4.40
2022-12-22T13:13:25.621Z,4.50
2022-12-22T13:16:04.487Z,4.50
2022-12-22T13:18:34.694Z,4.40
2022-12-22T13:24:24.017Z,4.40
2022-12-22T13:26:54.658Z,4.40
2022-12-22T13:29:35.981Z,4.40
2022-12-22T13:32:15.806Z,4.30
2022-12-22T13:35:28.938Z,4.30
2022-12-22T13:37:46.691Z,4.30
2022-12-22T13:40:25.369Z,4.30
2022-12-22T13:42:57.748Z,4.30
2022-12-22T13:45:30.199Z,4.30
2022-12-22T13:47:58.676Z,4.30
2022-12-22T13:50:37.031Z,4.30
2022-12-22T13:53:08.125Z,4.30
2022-12-22T13:55:36.444Z,4.30
2022-12-22T13:58:26.622Z,4.30
2022-12-22T14:01:11.801Z,4.30
2022-12-22T14:03:59.495Z,4.30
2022-12-22T14:06:29.689Z,4.30
2022-12-22T14:09:19.511Z,4.30
2022-12-22T14:12:12.868Z,4.30
2022-12-22T14:14:45.685Z,4.30
2022-12-22T14:17:35.582Z,4.30
2022-12-22T14:20:17.116Z,4.30
2022-12-22T14:22:49.923Z,4.30
2022-12-22T14:25:24.126Z,4.30
2022-12-22T14:27:54.552Z,4.30
2022-12-22T14:30:22.707Z,4.30
2022-12-22T14:32:55.399Z,4.30
2022-12-22T14:35:22.644Z,4.40
2022-12-22T14:38:07.486Z,4.40
2022-12-22T14:40:39.316Z,4.40
2022-12-22T14:43:14.765Z,4.40
2022-12-22T14:45:41.653Z,4.40
2022-12-22T14:48:10.179Z,4.40
2022-12-22T14:50:37.136Z,4.40
2022-12-22T14:53:05.583Z,4.40
2022-12-22T14:55:37.605Z,4.40
2022-12-22T14:58:10.543Z,4.40
2022-12-22T15:00:41.849Z,4.40
2022-12-22T15:03:35.028Z,4.40
2022-12-22T15:06:41.141Z,4.40
2022-12-22T15:09:14.038Z,4.40
2022-12-22T15:11:45.892Z,4.40
2022-12-22T15:14:16.541Z,4.40
2022-12-22T15:16:44.680Z,4.50
2022-12-22T15:19:17.081Z,4.50
2022-12-22T15:21:44.366Z,4.40
2022-12-22T15:24:13.129Z,4.40
2022-12-22T15:26:39.951Z,4.50
2022-12-22T15:29:06.800Z,4.50
2022-12-22T15:31:34.358Z,4.50
2022-12-22T15:34:04.036Z,4.50
2022-12-22T15:36:30.923Z,4.50
2022-12-22T15:38:57.768Z,4.50
2022-12-22T15:41:24.881Z,4.50
2022-12-22T15:43:57.881Z,4.40
2022-12-22T15:46:25.276Z,4.50
2022-12-22T15:48:52.558Z,4.50
2022-12-22T15:51:30.720Z,4.50
2022-12-22T15:53:59.237Z,4.50
2022-12-22T15:56:30.082Z,4.50
2022-12-22T15:58:57.587Z,4.60
2022-12-22T16:01:24.437Z,4.60
2022-12-22T16:03:51.393Z,4.60
2022-12-22T16:06:19.487Z,4.60
2022-12-22T16:08:52.724Z,4.60
2022-12-22T16:11:19.965Z,4.70
2022-12-22T16:13:47.864Z,4.70
2022-12-22T16:16:14.869Z,4.70
2022-12-22T16:18:41.926Z,4.70
2022-12-22T16:21:15.830Z,4.70
2022-12-22T16:23:45.609Z,4.80
2022-12-22T16:26:21.592Z,4.80
2022-12-22T16:28:48.834Z,4.80
2022-12-22T16:31:21.674Z,4.80
2022-12-22T16:33:49.446Z,4.80
2022-12-22T16:36:16.570Z,4.70
2022-12-22T16:38:45.839Z,4.70
2022-12-22T16:41:24.394Z,4.70
2022-12-22T16:44:00.823Z,4.60
2022-12-22T16:46:36.056Z,4.50
2022-12-22T16:49:06.405Z,4.50
2022-12-22T16:51:35.724Z,4.50
2022-12-22T16:54:03.216Z,4.40
2022-12-22T16:56:31.216Z,4.40
2022-12-22T16:58:58.811Z,4.40
2022-12-22T17:01:37.817Z,4.40
2022-12-22T17:04:11.967Z,4.40
2022-12-22T17:06:39.980Z,4.50
2022-12-22T17:09:15.968Z,4.40
2022-12-22T17:11:45.073Z,4.40
2022-12-22T17:14:20.969Z,4.40
2022-12-22T17:16:47.834Z,4.40
2022-12-22T17:19:14.671Z,4.40
2022-12-22T17:21:41.549Z,4.40
2022-12-22T17:24:13.501Z,4.40
2022-12-22T17:26:40.575Z,4.30
2022-12-22T17:29:17.846Z,4.30
2022-12-22T17:31:44.817Z,4.30
2022-12-22T17:34:17.001Z,4.30
2022-12-22T17:36:46.469Z,4.30
2022-12-22T17:39:19.527Z,4.20
2022-12-22T17:41:50.644Z,4.20
2022-12-22T17:44:27.003Z,4.10
2022-12-22T17:46:54.237Z,4.10
2022-12-22T17:49:22.400Z,4.20
2022-12-22T17:51:49.781Z,4.20
2022-12-22T17:54:24.800Z,4.20
2022-12-22T17:56:54.703Z,4.20
2022-12-22T17:59:21.528Z,4.20
2022-12-22T18:01:48.370Z,4.20
2022-12-22T18:04:15.346Z,4.30
2022-12-22T18:06:43.056Z,4.30
2022-12-22T18:09:20.872Z,4.30
2022-12-22T18:11:48.478Z,4.30
2022-12-22T18:14:15.706Z,4.40
2022-12-22T18:16:44.015Z,4.30
2022-12-22T18:19:11.810Z,4.40
2022-12-22T18:21:38.870Z,4.40
2022-12-22T18:24:06.248Z,4.40
2022-12-22T18:26:33.082Z,4.40
2022-12-22T18:29:00.020Z,4.40
2022-12-22T18:31:26.910Z,4.40
2022-12-22T18:33:53.879Z,4.40
2022-12-22T18:36:28.801Z,4.30
2022-12-22T18:38:56.684Z,4.30
2022-12-22T18:41:25.465Z,4.20
2022-12-22T18:43:52.498Z,4.10
2022-12-22T18:46:20.049Z,4.00
2022-12-22T18:48:47.947Z,4.00
2022-12-22T18:51:23.631Z,3.80
2022-12-22T18:53:52.601Z,3.80
2022-12-22T18:56:20.201Z,3.70
2022-12-22T18:58:47.391Z,3.60
2022-12-22T19:01:24.359Z,3.60
2022-12-22T19:03:54.196Z,3.50
2022-12-22T19:06:22.385Z,3.50
2022-12-22T19:08:50.107Z,3.40
2022-12-22T19:11:21.563Z,3.30
2022-12-22T19:13:51.070Z,3.30
2022-12-22T19:16:22.963Z,3.20
2022-12-22T19:18:49.924Z,3.10
2022-12-22T19:21:18.337Z,3.00
2022-12-22T19:23:45.899Z,2.90
2022-12-22T19:26:26.990Z,2.90
2022-12-22T19:29:01.238Z,2.90
2022-12-22T19:31:33.741Z,2.80
2022-12-22T19:34:04.318Z,2.80
2022-12-22T19:36:31.368Z,2.80
2022-12-22T19:39:03.766Z,2.80
2022-12-22T19:41:43.573Z,2.90
2022-12-22T19:44:25.516Z,2.80
2022-12-22T19:46:54.024Z,2.90
2022-12-22T19:49:27.209Z,2.90
2022-12-22T19:51:56.295Z,3.00
2022-12-22T19:54:23.562Z,3.00
2022-12-22T19:56:53.574Z,3.00
2022-12-22T19:59:39.414Z,3.10
2022-12-22T20:02:22.564Z,3.10
2022-12-22T20:04:50.183Z,3.10
2022-12-22T20:07:21.925Z,3.20
2022-12-22T20:09:48.976Z,3.20
2022-12-22T20:12:36.632Z,3.30
2022-12-22T20:15:20.203Z,3.40
2022-12-22T20:17:48.735Z,3.50
2022-12-22T20:20:25.026Z,3.60
2022-12-22T20:22:54.687Z,3.60
2022-12-22T20:25:25.694Z,3.70
2022-12-22T20:27:54.438Z,3.80
2022-12-22T20:30:27.567Z,3.80
2022-12-22T20:32:54.932Z,3.90
2022-12-22T20:35:23.308Z,3.90
2022-12-22T20:37:50.617Z,4.00
2022-12-22T20:40:29.282Z,4.00
2022-12-22T20:42:57.481Z,4.10
2022-12-22T20:45:29.447Z,4.20
2022-12-22T20:47:58.013Z,4.20
2022-12-22T20:50:28.304Z,4.30
2022-12-22T20:52:56.866Z,4.30
2022-12-22T20:55:26.717Z,4.40
2022-12-22T20:57:54.196Z,4.50
2022-12-22T21:00:24.010Z,4.40
2022-12-22T21:02:51.637Z,4.50
2022-12-22T21:05:19.051Z,4.50
2022-12-22T21:07:48.102Z,4.50
2022-12-22T21:10:23.649Z,4.50
2022-12-22T21:12:50.515Z,4.50
2022-12-22T21:15:23.952Z,4.50
2022-12-22T21:17:58.129Z,4.50
2022-12-22T21:20:28.178Z,4.50
2022-12-22T21:22:55.155Z,4.50
2022-12-22T21:25:23.108Z,4.40
2022-12-22T21:27:51.561Z,4.40
2022-12-22T21:30:21.352Z,4.40
2022-12-22T21:32:49.477Z,4.40
2022-12-22T21:35:21.355Z,4.50
2022-12-22T21:37:51.415Z,4.50
2022-12-22T21:40:27.799Z,4.40
2022-12-22T21:42:55.071Z,4.50
2022-12-22T21:45:24.598Z,4.40
2022-12-22T21:47:51.549Z,4.40
2022-12-22T21:50:22.657Z,4.40
2022-12-22T21:52:50.368Z,4.40
2022-12-22T21:55:25.233Z,4.40
2022-12-22T21:57:52.671Z,4.40
2022-12-22T22:00:21.306Z,4.30
2022-12-22T22:02:48.874Z,4.30
2022-12-22T22:05:24.765Z,4.40
2022-12-22T22:07:51.833Z,4.40
2022-12-22T22:10:21.477Z,4.40
2022-12-22T22:12:48.291Z,4.40
2022-12-22T22:15:15.763Z,4.40
2022-12-22T22:17:43.767Z,4.40
2022-12-22T22:20:14.870Z,4.30
2022-12-22T22:22:42.265Z,4.30
2022-12-22T22:25:10.587Z,4.30
2022-12-22T22:27:41.727Z,4.20
2022-12-22T22:30:15.724Z,4.20
2022-12-22T22:32:42.744Z,4.20
2022-12-22T22:35:10.873Z,4.10
2022-12-22T22:37:39.724Z,4.10
2022-12-22T22:40:12.667Z,4.10
2022-12-22T22:42:39.845Z,4.10
2022-12-22T22:45:08.232Z,4.10
2022-12-22T22:47:35.310Z,4.10
2022-12-22T22:50:06.891Z,4.10
2022-12-22T22:52:34.852Z,4.00
2022-12-22T22:55:02.063Z,4.10
2022-12-22T22:57:28.927Z,4.10
2022-12-22T22:59:55.724Z,4.10
2022-12-22T23:02:22.886Z,4.20
2022-12-22T23:04:49.860Z,4.20
2022-12-22T23:07:16.657Z,4.20
2022-12-22T23:09:43.495Z,4.20
2022-12-22T23:12:10.334Z,4.20
2022-12-22T23:14:37.154Z,4.20
2022-12-22T23:17:04.013Z,4.20
2022-12-22T23:19:30.905Z,4.20
2022-12-22T23:21:57.750Z,4.30
2022-12-22T23:24:24.586Z,4.30
2022-12-22T23:26:51.957Z,4.30
2022-12-22T23:29:19.091Z,4.30
2022-12-22T23:31:45.945Z,4.30
2022-12-22T23:34:12.897Z,4.30
2022-12-22T23:36:39.807Z,4.30
2022-12-22T23:39:07.581Z,4.30
2022-12-22T23:41:34.467Z,4.30
2022-12-22T23:44:01.570Z,4.30
2022-12-22T23:46:28.488Z,4.30
2022-12-22T23:48:57.885Z,4.30
2022-12-22T23:51:29.423Z,4.40
2022-12-22T23:53:58.404Z,4.40
2022-12-22T23:56:25.514Z,4.40
2022-12-22T23:58:54.929Z,4.40
